Aeroporto :
LOGIN :

Iscrizione | Disclaimer

   EN    FR    IT 

 










Sommario :    VFR   VFR Marginale   IFR   IFR Intensivo   IFR Molto Intensivo
Visibilità : 
Base nubi : 
>= 8 km
>= 3000ft
5 / 8 km
1000 / 3000 ft
1500m / 5 km
500 / 1000 ft
800 / 1500m
200 / 500 ft
< 800m
< 200 ft
Simboli :   Temporali  Nebbia  Neve Forte  Precipitazioni Forti  Vento > 20 kt
SIGMETs :   Varie  Temporali  Ghiacco  Turbolenza  Onda orograficha  Ceneri Vulcaniche






- Altitudine del aeroporto : 502 ft
- Codice IATA : ORK


EICK - Cork

ULTIMO METAR :
  • 141330Z 35021KT 9999 FEW022 06/M01 Q1007 NOSIG

METARs OBSOLETI :
  • 141230Z 35022KT 9999 FEW022 06/01 Q1007 NOSIG
  • 141200Z 35022KT 9999 FEW022 05/01 Q1007 NOSIG
  • 141130Z 35020G30KT 9999 FEW022 05/01 Q1006 NOSIG
  • 141100Z 35019KT 9999 FEW018 05/01 Q1006 NOSIG

TAF TAF EICK
Valido dal 14 a 12 ore il 15 a 12 ore UTC


141100Z 1412/1512 36018G28KT 9999 FEW018
BECMG 1500/1502 34015KT
BECMG 1506/1508 34017G28KT



MetMap, La meteo Aeronautica in un colpo d'occhio ! - Copyright ORBIFLY Dicembre 2007 - Disclaimer

ORBIFLY MET'MAP TEAM :

Programmazione e sviluppo : Alexandra Zaïnal
Concezione e sviluppo : Baudouin d'Aumeries
Co-Programmazione e sviluppo : Marc-Olivier Méhu
Supporto tecnico e logistico : Manuel Goepfert
Aiuto per la traduzione : Arnaldo La Scala

Contatto : metmap@orbifly.com




FONTI E CREDITI :

   NOAA